createdAt,value
2017-07-15T00:00:06.845Z,1009.9
2017-07-15T00:01:17.095Z,1009.9
2017-07-15T00:02:27.371Z,1009.92
2017-07-15T00:03:37.649Z,1009.89
2017-07-15T00:04:47.928Z,1009.9
2017-07-15T00:05:58.451Z,1009.89
2017-07-15T00:07:08.778Z,1009.87
2017-07-15T00:08:19.054Z,1009.86
2017-07-15T00:09:28.710Z,1009.84
2017-07-15T00:10:38.341Z,1009.86
2017-07-15T00:11:48.861Z,1009.88
2017-07-15T00:12:59.130Z,1009.83
2017-07-15T00:14:09.637Z,1009.82
2017-07-15T00:15:19.284Z,1009.83
2017-07-15T00:16:29.555Z,1009.83
2017-07-15T00:17:40.080Z,1009.85
2017-07-15T00:18:50.045Z,1009.82
2017-07-15T00:19:59.678Z,1009.84
2017-07-15T00:21:09.971Z,1009.8
2017-07-15T00:22:19.926Z,1009.85
2017-07-15T00:23:30.483Z,1009.91
2017-07-15T00:24:40.730Z,1009.88
2017-07-15T00:25:50.694Z,1009.89
2017-07-15T00:27:00.973Z,1009.86
2017-07-15T00:28:11.243Z,1009.88
2017-07-15T00:29:21.456Z,1009.87
2017-07-15T00:30:31.098Z,1009.86
2017-07-15T00:31:41.375Z,1009.91
2017-07-15T00:32:51.337Z,1009.9
2017-07-15T00:34:01.603Z,1009.88
2017-07-15T00:35:12.127Z,1009.91
2017-07-15T00:36:22.067Z,1009.88
2017-07-15T00:37:32.344Z,1009.93
2017-07-15T00:38:42.605Z,1009.88
2017-07-15T00:39:52.888Z,1009.95
2017-07-15T00:41:03.413Z,1009.93
2017-07-15T00:42:13.667Z,1009.97
2017-07-15T00:43:23.622Z,1009.97
2017-07-15T00:44:33.883Z,1009.96
2017-07-15T00:45:43.839Z,1009.95
2017-07-15T00:46:54.352Z,1009.96
2017-07-15T00:48:04.314Z,1009.96
2017-07-15T00:49:14.626Z,1009.99
2017-07-15T00:50:24.881Z,1009.94
2017-07-15T00:51:34.835Z,1009.99
2017-07-15T00:52:45.367Z,1009.98
2017-07-15T00:53:55.329Z,1009.99
2017-07-15T00:55:05.602Z,1009.97
2017-07-15T00:56:15.874Z,1009.98
2017-07-15T00:57:26.157Z,1009.97
2017-07-15T00:58:36.352Z,1009.96
2017-07-15T00:59:46.612Z,1009.93
2017-07-15T01:00:56.880Z,1009.94
2017-07-15T01:02:07.150Z,1009.93
2017-07-15T01:03:17.106Z,1009.93
2017-07-15T01:04:26.989Z,1009.89
2017-07-15T01:05:37.249Z,1009.92
2017-07-15T01:06:47.509Z,1009.93
2017-07-15T01:07:57.466Z,1009.93
2017-07-15T01:09:07.107Z,1009.98
2017-07-15T01:10:17.671Z,1009.97
2017-07-15T01:11:27.628Z,1009.98
2017-07-15T01:12:37.879Z,1009.98
2017-07-15T01:13:47.835Z,1009.96
2017-07-15T01:14:58.108Z,1010
2017-07-15T01:16:08.621Z,1009.99
2017-07-15T01:17:18.896Z,1010.03
2017-07-15T01:18:29.154Z,1009.99
2017-07-15T01:19:39.431Z,1010
2017-07-15T01:20:49.691Z,1010
2017-07-15T01:21:59.892Z,1010.01
2017-07-15T01:23:10.156Z,1010.05
2017-07-15T01:24:19.783Z,1009.99
2017-07-15T01:25:30.039Z,1009.99
2017-07-15T01:26:39.984Z,1010.05
2017-07-15T01:27:50.187Z,1010.06
2017-07-15T01:29:00.440Z,1010.04
2017-07-15T01:30:10.719Z,1010.07
2017-07-15T01:31:20.712Z,1010.08
2017-07-15T01:32:30.990Z,1010.06
2017-07-15T01:33:41.507Z,1010.05
2017-07-15T01:34:51.457Z,1010.09
2017-07-15T01:36:01.718Z,1010.1
2017-07-15T01:37:11.974Z,1010.07
2017-07-15T01:38:22.235Z,1010.1
2017-07-15T01:39:32.438Z,1010.14
2017-07-15T01:40:42.692Z,1010.13
2017-07-15T01:41:52.661Z,1010.14
2017-07-15T01:43:02.937Z,1010.14
2017-07-15T01:44:12.902Z,1010.17
2017-07-15T01:45:23.423Z,1010.23
2017-07-15T01:46:33.381Z,1010.2
2017-07-15T01:47:42.999Z,1010.2
2017-07-15T01:48:53.263Z,1010.25
2017-07-15T01:50:03.542Z,1010.29
2017-07-15T01:51:14.063Z,1010.27
2017-07-15T01:52:24.022Z,1010.24
2017-07-15T01:53:33.361Z,1010.25
2017-07-15T01:54:43.627Z,1010.29
2017-07-15T01:55:53.883Z,1010.27
2017-07-15T01:57:04.396Z,1010.31
2017-07-15T01:58:14.665Z,1010.3
2017-07-15T01:59:25.076Z,1010.28
2017-07-15T02:00:35.340Z,1010.33
2017-07-15T02:01:45.615Z,1010.34
2017-07-15T02:02:56.126Z,1010.35
2017-07-15T02:04:06.403Z,1010.33
2017-07-15T02:05:16.345Z,1010.34
2017-07-15T02:06:26.596Z,1010.35
2017-07-15T02:07:36.546Z,1010.31
2017-07-15T02:08:46.760Z,1010.33
2017-07-15T02:09:57.019Z,1010.33
2017-07-15T02:11:06.980Z,1010.34
2017-07-15T02:12:17.274Z,1010.37
2017-07-15T02:13:27.230Z,1010.33
2017-07-15T02:14:37.421Z,1010.37
2017-07-15T02:15:47.693Z,1010.36
2017-07-15T02:16:57.950Z,1010.36
2017-07-15T02:18:08.225Z,1010.33
2017-07-15T02:19:18.490Z,1010.39
2017-07-15T02:20:28.379Z,1010.4
2017-07-15T02:21:38.657Z,1010.39
2017-07-15T02:22:48.924Z,1010.4
2017-07-15T02:23:59.192Z,1010.37
2017-07-15T02:25:09.471Z,1010.4
2017-07-15T02:26:19.998Z,1010.42
2017-07-15T02:27:30.284Z,1010.41
2017-07-15T02:28:40.554Z,1010.44
2017-07-15T02:29:50.826Z,1010.48
2017-07-15T02:31:01.085Z,1010.47
2017-07-15T02:32:11.265Z,1010.46
2017-07-15T02:33:21.535Z,1010.46
2017-07-15T02:34:31.800Z,1010.47
2017-07-15T02:35:41.756Z,1010.46
2017-07-15T02:36:52.005Z,1010.5
2017-07-15T02:38:02.509Z,1010.5
2017-07-15T02:39:12.774Z,1010.5
2017-07-15T02:40:22.415Z,1010.5
2017-07-15T02:41:32.683Z,1010.46
2017-07-15T02:42:42.989Z,1010.48
2017-07-15T02:43:53.493Z,1010.5
2017-07-15T02:45:03.755Z,1010.51
2017-07-15T02:46:13.389Z,1010.53
2017-07-15T02:47:23.369Z,1010.5
2017-07-15T02:48:33.640Z,1010.48
2017-07-15T02:49:44.175Z,1010.51
2017-07-15T02:50:54.432Z,1010.48
2017-07-15T02:52:04.385Z,1010.52
2017-07-15T02:53:14.685Z,1010.5
2017-07-15T02:54:24.644Z,1010.52
2017-07-15T02:55:34.840Z,1010.55
2017-07-15T02:56:45.135Z,1010.58
2017-07-15T02:57:55.097Z,1010.6
2017-07-15T02:59:05.389Z,1010.59
2017-07-15T03:00:15.032Z,1010.62
2017-07-15T03:01:25.232Z,1010.61
2017-07-15T03:02:35.505Z,1010.63
2017-07-15T03:03:45.769Z,1010.61
2017-07-15T03:04:56.063Z,1010.62
2017-07-15T03:06:06.338Z,1010.63
2017-07-15T03:07:16.592Z,1010.62
2017-07-15T03:08:26.857Z,1010.62
2017-07-15T03:09:36.820Z,1010.67
2017-07-15T03:10:46.770Z,1010.65
2017-07-15T03:11:57.038Z,1010.66
2017-07-15T03:13:07.236Z,1010.64
2017-07-15T03:14:17.497Z,1010.68
2017-07-15T03:15:27.770Z,1010.66
2017-07-15T03:16:38.036Z,1010.62
2017-07-15T03:17:47.684Z,1010.67
2017-07-15T03:18:57.886Z,1010.67
2017-07-15T03:20:08.151Z,1010.68
2017-07-15T03:21:18.421Z,1010.72
2017-07-15T03:22:28.370Z,1010.71
2017-07-15T03:23:38.319Z,1010.71
2017-07-15T03:24:48.559Z,1010.72
2017-07-15T03:25:58.815Z,1010.71
2017-07-15T03:27:08.763Z,1010.72
2017-07-15T03:28:18.388Z,1010.71
2017-07-15T03:29:28.363Z,1010.71
2017-07-15T03:30:38.247Z,1010.71
2017-07-15T03:31:48.516Z,1010.72
2017-07-15T03:32:58.784Z,1010.74
2017-07-15T03:34:08.725Z,1010.81
2017-07-15T03:35:18.986Z,1010.77
2017-07-15T03:36:28.549Z,1010.8
2017-07-15T03:37:38.816Z,1010.81
2017-07-15T03:38:48.761Z,1010.79
2017-07-15T03:39:58.714Z,1010.78
2017-07-15T03:41:08.978Z,1010.8
2017-07-15T03:42:19.192Z,1010.84
2017-07-15T03:43:28.806Z,1010.81
2017-07-15T03:44:39.055Z,1010.9
2017-07-15T03:45:48.674Z,1010.86
2017-07-15T03:46:58.614Z,1010.93
2017-07-15T03:48:08.489Z,1010.89
2017-07-15T03:49:18.422Z,1010.9
2017-07-15T03:50:28.366Z,1010.87
2017-07-15T03:51:38.642Z,1010.88
2017-07-15T03:52:48.911Z,1010.92
2017-07-15T03:53:59.440Z,1010.92
2017-07-15T03:55:09.697Z,1011.02
2017-07-15T03:56:19.954Z,1011.04
2017-07-15T03:57:30.224Z,1011.17
2017-07-15T03:58:40.513Z,1011.14
2017-07-15T03:59:51.030Z,1011.16
2017-07-15T04:01:01.301Z,1011.08
2017-07-15T04:02:11.560Z,1011.11
2017-07-15T04:03:21.825Z,1011.18
2017-07-15T04:04:32.107Z,1011.15
2017-07-15T04:05:42.623Z,1011.1
2017-07-15T04:06:52.895Z,1011.11
2017-07-15T04:08:03.153Z,1011.12
2017-07-15T04:09:13.419Z,1011.12
2017-07-15T04:10:23.679Z,1011.18
2017-07-15T04:11:34.191Z,1011.15
2017-07-15T04:12:44.461Z,1011.16
2017-07-15T04:13:54.713Z,1011.16
2017-07-15T04:15:04.978Z,1011.23
2017-07-15T04:16:15.264Z,1011.23
2017-07-15T04:17:25.469Z,1011.26
2017-07-15T04:18:35.748Z,1011.24
2017-07-15T04:19:45.701Z,1011.25
2017-07-15T04:20:55.656Z,1011.26
2017-07-15T04:22:05.926Z,1011.3
2017-07-15T04:23:16.440Z,1011.27
2017-07-15T04:24:26.689Z,1011.28
2017-07-15T04:25:36.956Z,1011.32
2017-07-15T04:26:47.233Z,1011.3
2017-07-15T04:27:57.499Z,1011.33
2017-07-15T04:29:08.018Z,1011.33
2017-07-15T04:30:18.317Z,1011.38
2017-07-15T04:31:28.268Z,1011.37
2017-07-15T04:32:38.529Z,1011.37
2017-07-15T04:33:48.794Z,1011.37
2017-07-15T04:34:59.312Z,1011.36
2017-07-15T04:36:09.274Z,1011.34
2017-07-15T04:37:19.541Z,1011.34
2017-07-15T04:38:29.486Z,1011.35
2017-07-15T04:39:39.749Z,1011.38
2017-07-15T04:40:50.269Z,1011.39
2017-07-15T04:42:00.542Z,1011.39
2017-07-15T04:43:10.502Z,1011.36
2017-07-15T04:44:20.770Z,1011.43
2017-07-15T04:45:31.051Z,1011.45
2017-07-15T04:46:41.572Z,1011.43
2017-07-15T04:47:51.532Z,1011.49
2017-07-15T04:49:01.490Z,1011.48
2017-07-15T04:50:11.753Z,1011.54
2017-07-15T04:51:21.700Z,1011.51
2017-07-15T04:52:32.216Z,1011.53
2017-07-15T04:53:42.175Z,1011.48
2017-07-15T04:54:52.135Z,1011.48
2017-07-15T04:56:02.410Z,1011.51
2017-07-15T04:57:12.360Z,1011.52
2017-07-15T04:58:22.872Z,1011.52
2017-07-15T04:59:33.143Z,1011.51
2017-07-15T05:00:43.423Z,1011.56
2017-07-15T05:01:53.706Z,1011.51
2017-07-15T05:03:03.974Z,1011.54
2017-07-15T05:04:14.512Z,1011.57
2017-07-15T05:05:24.789Z,1011.61
2017-07-15T05:06:35.057Z,1011.59
2017-07-15T05:07:45.331Z,1011.64
2017-07-15T05:08:55.283Z,1011.56
2017-07-15T05:10:05.474Z,1011.59
2017-07-15T05:11:15.723Z,1011.59
2017-07-15T05:12:25.367Z,1011.62
2017-07-15T05:13:35.629Z,1011.65
2017-07-15T05:14:45.891Z,1011.64
2017-07-15T05:15:56.079Z,1011.68
2017-07-15T05:17:05.397Z,1011.72
2017-07-15T05:18:15.353Z,1011.69
2017-07-15T05:19:25.610Z,1011.72
2017-07-15T05:20:35.588Z,1011.71
2017-07-15T05:21:46.102Z,1011.78
2017-07-15T05:22:56.052Z,1011.76
2017-07-15T05:24:06.007Z,1011.77
2017-07-15T05:25:16.264Z,1011.8
2017-07-15T05:26:26.223Z,1011.79
2017-07-15T05:27:36.757Z,1011.83
2017-07-15T05:28:47.031Z,1011.81
2017-07-15T05:29:56.992Z,1011.79
2017-07-15T05:31:07.270Z,1011.81
2017-07-15T05:32:17.531Z,1011.79
2017-07-15T05:33:27.944Z,1011.8
2017-07-15T05:34:38.219Z,1011.81
2017-07-15T05:35:48.477Z,1011.83
2017-07-15T05:36:58.750Z,1011.83
2017-07-15T05:38:09.037Z,1011.79
2017-07-15T05:39:19.262Z,1011.82
2017-07-15T05:40:29.214Z,1011.82
2017-07-15T05:41:39.146Z,1011.84
2017-07-15T05:42:48.779Z,1011.89
2017-07-15T05:43:59.039Z,1011.86
2017-07-15T05:45:09.251Z,1011.9
2017-07-15T05:46:19.507Z,1011.92
2017-07-15T05:47:29.466Z,1011.92
2017-07-15T05:48:39.410Z,1011.92
2017-07-15T05:49:49.688Z,1011.92
2017-07-15T05:50:59.581Z,1011.88
2017-07-15T05:52:09.900Z,1011.95
2017-07-15T05:53:20.157Z,1011.94
2017-07-15T05:54:29.792Z,1011.97
2017-07-15T05:55:40.059Z,1012
2017-07-15T05:56:50.586Z,1012.01
2017-07-15T05:58:00.850Z,1012.01
2017-07-15T05:59:11.104Z,1012.09
2017-07-15T06:00:21.380Z,1012.1
2017-07-15T06:01:31.653Z,1012.08
2017-07-15T06:02:42.165Z,1012.12
2017-07-15T06:03:52.128Z,1012.07
2017-07-15T06:05:02.105Z,1012.08
2017-07-15T06:06:11.739Z,1012.11
2017-07-15T06:07:21.985Z,1012.18
2017-07-15T06:08:32.193Z,1012.16
2017-07-15T06:09:42.453Z,1012.17
2017-07-15T06:10:52.074Z,1012.16
2017-07-15T06:12:02.341Z,1012.21
2017-07-15T06:13:12.309Z,1012.22
2017-07-15T06:14:22.884Z,1012.32
2017-07-15T06:15:33.159Z,1012.35
2017-07-15T06:16:43.438Z,1012.31
2017-07-15T06:17:53.717Z,1012.27
2017-07-15T06:19:03.972Z,1012.38
2017-07-15T06:20:13.848Z,1012.37
2017-07-15T06:21:23.813Z,1012.33
2017-07-15T06:22:34.094Z,1012.36
2017-07-15T06:23:44.366Z,1012.44
2017-07-15T06:24:54.639Z,1012.4
2017-07-15T06:26:04.848Z,1012.45
2017-07-15T06:27:15.122Z,1012.4
2017-07-15T06:28:25.379Z,1012.44
2017-07-15T06:29:35.333Z,1012.48
2017-07-15T06:30:45.611Z,1012.42
2017-07-15T06:31:56.134Z,1012.45
2017-07-15T06:33:06.404Z,1012.51
2017-07-15T06:34:16.702Z,1012.45
2017-07-15T06:35:26.659Z,1012.49
2017-07-15T06:36:36.620Z,1012.46
2017-07-15T06:37:47.128Z,1012.46
2017-07-15T06:38:57.390Z,1012.42
2017-07-15T06:40:07.659Z,1012.44
2017-07-15T06:41:17.625Z,1012.42
2017-07-15T06:42:27.579Z,1012.44
2017-07-15T06:43:38.134Z,1012.46
2017-07-15T06:44:48.403Z,1012.48
2017-07-15T06:45:58.679Z,1012.5
2017-07-15T06:47:08.943Z,1012.51
2017-07-15T06:48:18.911Z,1012.55
2017-07-15T06:49:29.479Z,1012.54
2017-07-15T06:50:39.431Z,1012.58
2017-07-15T06:51:49.704Z,1012.6
2017-07-15T06:52:59.970Z,1012.61
2017-07-15T06:54:10.248Z,1012.64
2017-07-15T06:55:20.435Z,1012.67
2017-07-15T06:56:30.720Z,1012.66
2017-07-15T06:57:40.681Z,1012.71
2017-07-15T06:58:50.942Z,1012.67
2017-07-15T07:00:00.894Z,1012.72
2017-07-15T07:01:11.414Z,1012.71
2017-07-15T07:02:21.374Z,1012.74
2017-07-15T07:03:31.658Z,1012.73
2017-07-15T07:04:41.925Z,1012.78
2017-07-15T07:05:51.883Z,1012.78
2017-07-15T07:07:01.775Z,1012.7
2017-07-15T07:08:11.736Z,1012.71
2017-07-15T07:09:21.383Z,1012.74
2017-07-15T07:10:31.341Z,1012.72
2017-07-15T07:11:41.295Z,1012.75
2017-07-15T07:12:51.857Z,1012.76
2017-07-15T07:14:01.498Z,1012.76
2017-07-15T07:15:11.775Z,1012.81
2017-07-15T07:16:21.724Z,1012.76
2017-07-15T07:17:31.670Z,1012.81
2017-07-15T07:18:41.550Z,1012.76
2017-07-15T07:19:51.496Z,1012.83
2017-07-15T07:21:01.455Z,1012.89
2017-07-15T07:22:11.417Z,1012.83
2017-07-15T07:23:21.354Z,1012.84
2017-07-15T07:24:31.545Z,1012.87
2017-07-15T07:25:41.822Z,1012.86
2017-07-15T07:26:51.775Z,1012.87
2017-07-15T07:28:02.033Z,1012.86
2017-07-15T07:29:12.002Z,1012.94
2017-07-15T07:30:22.203Z,1012.91
2017-07-15T07:31:32.482Z,1012.96
2017-07-15T07:32:42.763Z,1012.96
2017-07-15T07:33:52.730Z,1012.96
2017-07-15T07:35:02.676Z,1012.98
2017-07-15T07:36:13.192Z,1013
2017-07-15T07:37:23.479Z,1013
2017-07-15T07:38:33.734Z,1013.01
2017-07-15T07:39:43.690Z,1013.02
2017-07-15T07:40:53.645Z,1013.03
2017-07-15T07:42:03.850Z,1013.03
2017-07-15T07:43:13.815Z,1013.01
2017-07-15T07:44:24.082Z,1013.02
2017-07-15T07:45:34.353Z,1013.04
2017-07-15T07:46:44.625Z,1013.05
2017-07-15T07:47:55.153Z,1013.07
2017-07-15T07:49:05.433Z,1013.03
2017-07-15T07:50:15.718Z,1013.07
2017-07-15T07:51:25.666Z,1013.07
2017-07-15T07:52:36.171Z,1013.08
2017-07-15T07:53:46.367Z,1013.06
2017-07-15T07:54:56.641Z,1013.09
2017-07-15T07:56:06.941Z,1013.07
2017-07-15T07:57:17.208Z,1013.12
2017-07-15T07:58:27.152Z,1013.13
2017-07-15T07:59:37.676Z,1013.14
2017-07-15T08:00:47.630Z,1013.16
2017-07-15T08:01:57.904Z,1013.15
2017-07-15T08:03:07.875Z,1013.21
2017-07-15T08:04:18.146Z,1013.19
2017-07-15T08:05:28.023Z,1013.24
2017-07-15T08:06:37.675Z,1013.24
2017-07-15T08:07:47.651Z,1013.22
2017-07-15T08:08:57.615Z,1013.29
2017-07-15T08:10:07.565Z,1013.28
2017-07-15T08:11:18.080Z,1013.26
2017-07-15T08:12:28.376Z,1013.23
2017-07-15T08:13:38.038Z,1013.25
2017-07-15T08:14:48.015Z,1013.25
2017-07-15T08:15:58.303Z,1013.24
2017-07-15T08:17:08.562Z,1013.26
2017-07-15T08:18:18.820Z,1013.23
2017-07-15T08:19:28.776Z,1013.33
2017-07-15T08:20:39.047Z,1013.32
2017-07-15T08:21:48.695Z,1013.35
2017-07-15T08:22:59.218Z,1013.3
2017-07-15T08:24:09.185Z,1013.29
2017-07-15T08:25:19.450Z,1013.31
2017-07-15T08:26:29.723Z,1013.31
2017-07-15T08:27:39.999Z,1013.28
2017-07-15T08:28:50.220Z,1013.32
2017-07-15T08:30:00.180Z,1013.33
2017-07-15T08:31:09.826Z,1013.32
2017-07-15T08:32:20.084Z,1013.32
2017-07-15T08:33:30.364Z,1013.36
2017-07-15T08:34:40.566Z,1013.36
2017-07-15T08:35:50.196Z,1013.37
2017-07-15T08:37:00.465Z,1013.39
2017-07-15T08:38:10.763Z,1013.46
2017-07-15T08:39:21.034Z,1013.42
2017-07-15T08:40:31.560Z,1013.39
2017-07-15T08:41:41.527Z,1013.51
2017-07-15T08:42:51.503Z,1013.48
2017-07-15T08:44:01.780Z,1013.45
2017-07-15T08:45:12.066Z,1013.46
2017-07-15T08:46:22.281Z,1013.48
2017-07-15T08:47:32.228Z,1013.54
2017-07-15T08:48:42.527Z,1013.54
2017-07-15T08:49:52.811Z,1013.53
2017-07-15T08:51:03.073Z,1013.55
2017-07-15T08:52:13.335Z,1013.52
2017-07-15T08:53:23.292Z,1013.53
2017-07-15T08:54:33.251Z,1013.53
2017-07-15T08:55:43.523Z,1013.54
2017-07-15T08:56:53.812Z,1013.59
2017-07-15T08:58:04.365Z,1013.61
2017-07-15T08:59:14.644Z,1013.58
2017-07-15T09:00:24.932Z,1013.55
2017-07-15T09:01:34.891Z,1013.59
2017-07-15T09:02:44.870Z,1013.56
2017-07-15T09:03:55.131Z,1013.62
2017-07-15T09:05:05.100Z,1013.62
2017-07-15T09:06:15.377Z,1013.61
2017-07-15T09:07:25.032Z,1013.6
2017-07-15T09:08:35.333Z,1013.58
2017-07-15T09:09:45.875Z,1013.62
2017-07-15T09:10:55.516Z,1013.62
2017-07-15T09:12:05.794Z,1013.64
2017-07-15T09:13:16.069Z,1013.65
2017-07-15T09:14:26.371Z,1013.65
2017-07-15T09:15:36.588Z,1013.61
2017-07-15T09:16:46.550Z,1013.61
2017-07-15T09:17:56.563Z,1013.6
2017-07-15T09:19:06.852Z,1013.62
2017-07-15T09:20:16.826Z,1013.65
2017-07-15T09:21:27.046Z,1013.66
2017-07-15T09:22:37.330Z,1013.66
2017-07-15T09:23:47.603Z,1013.67
2017-07-15T09:24:57.555Z,1013.72
2017-07-15T09:26:07.829Z,1013.7
2017-07-15T09:27:18.041Z,1013.78
2017-07-15T09:28:28.325Z,1013.76
2017-07-15T09:29:38.607Z,1013.77
2017-07-15T09:30:48.874Z,1013.77
2017-07-15T09:31:59.167Z,1013.76
2017-07-15T09:33:09.711Z,1013.74
2017-07-15T09:34:19.356Z,1013.75
2017-07-15T09:35:29.631Z,1013.75
2017-07-15T09:36:39.906Z,1013.79
2017-07-15T09:37:50.228Z,1013.77
2017-07-15T09:39:00.753Z,1013.74
2017-07-15T09:40:10.713Z,1013.69
2017-07-15T09:41:21.003Z,1013.76
2017-07-15T09:42:30.976Z,1013.77
2017-07-15T09:43:40.937Z,1013.74
2017-07-15T09:44:51.516Z,1013.81
2017-07-15T09:46:01.788Z,1013.79
2017-07-15T09:47:11.764Z,1013.8
2017-07-15T09:48:22.045Z,1013.8
2017-07-15T09:49:32.315Z,1013.8
2017-07-15T09:50:42.862Z,1013.76
2017-07-15T09:51:53.140Z,1013.81
2017-07-15T09:53:03.422Z,1013.8
2017-07-15T09:54:13.394Z,1013.79
2017-07-15T09:55:23.683Z,1013.82
2017-07-15T09:56:34.208Z,1013.81
2017-07-15T09:57:44.488Z,1013.84
2017-07-15T09:58:54.772Z,1013.88
2017-07-15T10:00:04.732Z,1013.91
2017-07-15T10:01:15.020Z,1013.89
2017-07-15T10:02:25.281Z,1013.88
2017-07-15T10:03:35.551Z,1013.87
2017-07-15T10:04:45.817Z,1013.85
2017-07-15T10:05:56.157Z,1013.87
2017-07-15T10:07:06.443Z,1013.94
2017-07-15T10:08:16.653Z,1013.84
2017-07-15T10:09:26.928Z,1013.94
2017-07-15T10:10:36.880Z,1013.94
2017-07-15T10:11:47.152Z,1013.95
2017-07-15T10:12:57.437Z,1013.96
2017-07-15T10:14:07.650Z,1013.99
2017-07-15T10:15:17.947Z,1013.93
2017-07-15T10:16:28.231Z,1014.05
2017-07-15T10:17:38.516Z,1014.05
2017-07-15T10:18:48.478Z,1014.05
2017-07-15T10:19:59.024Z,1014.12
2017-07-15T10:21:09.322Z,1014.06
2017-07-15T10:22:19.279Z,1014.05
2017-07-15T10:23:29.241Z,1013.97
2017-07-15T10:24:39.208Z,1013.97
2017-07-15T10:25:49.421Z,1013.99
2017-07-15T10:26:59.688Z,1014.05
2017-07-15T10:28:09.975Z,1013.89
2017-07-15T10:29:19.961Z,1014.04
2017-07-15T10:30:29.934Z,1014.05
2017-07-15T10:31:40.547Z,1014.01
2017-07-15T10:32:50.843Z,1014.08
2017-07-15T10:34:00.800Z,1014.02
2017-07-15T10:35:11.077Z,1014.03
2017-07-15T10:36:21.350Z,1014.05
2017-07-15T10:37:31.589Z,1014.1
2017-07-15T10:38:41.541Z,1014.07
2017-07-15T10:39:51.817Z,1014.04
2017-07-15T10:41:02.097Z,1014.17
2017-07-15T10:42:12.383Z,1014.13
2017-07-15T10:43:22.605Z,1014.18
2017-07-15T10:44:32.876Z,1014.12
2017-07-15T10:45:42.842Z,1014.16
2017-07-15T10:46:52.485Z,1014.23
2017-07-15T10:48:02.766Z,1014.23
2017-07-15T10:49:12.991Z,1014.29
2017-07-15T10:50:23.254Z,1014.25
2017-07-15T10:51:33.551Z,1014.25
2017-07-15T10:52:43.819Z,1014.25
2017-07-15T10:53:53.455Z,1014.34
2017-07-15T10:55:03.996Z,1014.33
2017-07-15T10:56:14.270Z,1014.3
2017-07-15T10:57:23.912Z,1014.32
2017-07-15T10:58:34.186Z,1014.28
2017-07-15T10:59:44.454Z,1014.3
2017-07-15T11:00:54.977Z,1014.29
2017-07-15T11:02:04.953Z,1014.36
2017-07-15T11:03:15.243Z,1014.38
2017-07-15T11:04:25.527Z,1014.3
2017-07-15T11:05:35.189Z,1014.41
2017-07-15T11:06:45.733Z,1014.32
2017-07-15T11:07:56.016Z,1014.33
2017-07-15T11:09:06.324Z,1014.32
2017-07-15T11:10:16.292Z,1014.25
2017-07-15T11:11:26.586Z,1014.36
2017-07-15T11:12:37.146Z,1014.33
2017-07-15T11:13:47.415Z,1014.26
2017-07-15T11:14:57.402Z,1014.21
2017-07-15T11:16:07.675Z,1014.25
2017-07-15T11:17:18.012Z,1014.2
2017-07-15T11:18:28.559Z,1014.26
2017-07-15T11:19:38.846Z,1014.23
2017-07-15T11:20:49.128Z,1014.24
2017-07-15T11:21:59.096Z,1014.26
2017-07-15T11:23:09.364Z,1014.19
2017-07-15T11:24:19.626Z,1014.28
2017-07-15T11:25:29.908Z,1014.25
2017-07-15T11:26:40.194Z,1014.23
2017-07-15T11:27:50.461Z,1014.32
2017-07-15T11:29:00.781Z,1014.35
2017-07-15T11:30:10.997Z,1014.31
2017-07-15T11:31:20.961Z,1014.31
2017-07-15T11:32:31.230Z,1014.29
2017-07-15T11:33:41.485Z,1014.33
2017-07-15T11:34:51.773Z,1014.39
2017-07-15T11:36:02.298Z,1014.29
2017-07-15T11:37:12.584Z,1014.27
2017-07-15T11:38:22.854Z,1014.27
2017-07-15T11:39:32.500Z,1014.26
2017-07-15T11:40:42.467Z,1014.34
2017-07-15T11:41:52.680Z,1014.25
2017-07-15T11:43:02.945Z,1014.23
2017-07-15T11:44:13.218Z,1014.2
2017-07-15T11:45:23.518Z,1014.27
2017-07-15T11:46:33.810Z,1014.3
2017-07-15T11:47:44.357Z,1014.28
2017-07-15T11:48:54.312Z,1014.42
2017-07-15T11:50:04.606Z,1014.36
2017-07-15T11:51:14.263Z,1014.35
2017-07-15T11:52:24.557Z,1014.35
2017-07-15T11:53:34.464Z,1014.31
2017-07-15T11:54:44.744Z,1014.24
2017-07-15T11:55:55.044Z,1014.34
2017-07-15T11:57:05.314Z,1014.35
2017-07-15T11:58:14.970Z,1014.38
2017-07-15T11:59:25.189Z,1014.32
2017-07-15T12:00:35.472Z,1014.3
2017-07-15T12:01:45.772Z,1014.25
2017-07-15T12:02:56.040Z,1014.31
2017-07-15T12:04:06.319Z,1014.3
2017-07-15T12:05:16.895Z,1014.24
2017-07-15T12:06:27.184Z,1014.3
2017-07-15T12:07:37.468Z,1014.33
2017-07-15T12:08:47.754Z,1014.24
2017-07-15T12:09:58.041Z,1014.29
2017-07-15T12:11:08.558Z,1014.42
2017-07-15T12:12:18.874Z,1014.26
2017-07-15T12:13:29.164Z,1014.41
2017-07-15T12:14:39.123Z,1014.35
2017-07-15T12:15:48.763Z,1014.33
2017-07-15T12:16:59.298Z,1014.29
2017-07-15T12:18:09.267Z,1014.48
2017-07-15T12:19:19.548Z,1014.46
2017-07-15T12:20:29.850Z,1014.39
2017-07-15T12:21:40.136Z,1014.4
2017-07-15T12:22:50.655Z,1014.23
2017-07-15T12:24:00.924Z,1014.22
2017-07-15T12:25:11.212Z,1014.38
2017-07-15T12:26:21.511Z,1014.47
2017-07-15T12:27:31.794Z,1014.52
2017-07-15T12:28:42.330Z,1014.3
2017-07-15T12:29:52.618Z,1014.39
2017-07-15T12:31:02.920Z,1014.37
2017-07-15T12:32:13.209Z,1014.4
2017-07-15T12:33:23.500Z,1014.4
2017-07-15T12:34:33.407Z,1014.25
2017-07-15T12:35:43.685Z,1014.25
2017-07-15T12:36:53.964Z,1014.38
2017-07-15T12:38:04.251Z,1014.31
2017-07-15T12:39:13.898Z,1014.28
2017-07-15T12:40:24.117Z,1014.39
2017-07-15T12:41:33.449Z,1014.38
2017-07-15T12:42:43.727Z,1014.33
2017-07-15T12:43:54.006Z,1014.38
2017-07-15T12:45:03.668Z,1014.33
2017-07-15T12:46:13.876Z,1014.33
2017-07-15T12:47:23.851Z,1014.32
2017-07-15T12:48:34.130Z,1014.42
2017-07-15T12:49:44.450Z,1014.45
2017-07-15T12:50:54.109Z,1014.33
2017-07-15T12:52:04.671Z,1014.36
2017-07-15T12:53:14.954Z,1014.46
2017-07-15T12:54:25.238Z,1014.35
2017-07-15T12:55:35.527Z,1014.45
2017-07-15T12:56:45.493Z,1014.34
2017-07-15T12:57:56.021Z,1014.46
2017-07-15T12:59:06.287Z,1014.49
2017-07-15T13:00:16.597Z,1014.38
2017-07-15T13:01:26.250Z,1014.44
2017-07-15T13:02:36.526Z,1014.43
2017-07-15T13:03:47.114Z,1014.57
2017-07-15T13:04:57.393Z,1014.46
2017-07-15T13:06:07.666Z,1014.57
2017-07-15T13:07:17.955Z,1014.39
2017-07-15T13:08:28.247Z,1014.4
2017-07-15T13:09:38.462Z,1014.52
2017-07-15T13:10:47.785Z,1014.37
2017-07-15T13:11:58.087Z,1014.39
2017-07-15T13:13:08.366Z,1014.42
2017-07-15T13:14:18.328Z,1014.5
2017-07-15T13:15:28.887Z,1014.65
2017-07-15T13:16:39.156Z,1014.4
2017-07-15T13:17:49.420Z,1014.48
2017-07-15T13:18:59.698Z,1014.45
2017-07-15T13:20:09.992Z,1014.36
2017-07-15T13:21:20.532Z,1014.4
2017-07-15T13:22:30.811Z,1014.47
2017-07-15T13:23:41.082Z,1014.56
2017-07-15T13:24:51.366Z,1014.42
2017-07-15T13:26:01.654Z,1014.43
2017-07-15T13:27:12.183Z,1014.43
2017-07-15T13:28:22.169Z,1014.52
2017-07-15T13:29:32.456Z,1014.43
2017-07-15T13:30:42.753Z,1014.52
2017-07-15T13:31:53.038Z,1014.5
2017-07-15T13:33:03.574Z,1014.44
2017-07-15T13:34:13.851Z,1014.46
2017-07-15T13:35:23.814Z,1014.49
2017-07-15T13:36:34.086Z,1014.49
2017-07-15T13:37:43.733Z,1014.53
2017-07-15T13:38:54.261Z,1014.66
2017-07-15T13:40:04.236Z,1014.57
2017-07-15T13:41:14.515Z,1014.6
2017-07-15T13:42:24.794Z,1014.68
2017-07-15T13:43:35.078Z,1014.6
2017-07-15T13:44:45.620Z,1014.72
2017-07-15T13:45:55.907Z,1014.54
2017-07-15T13:47:06.167Z,1014.58
2017-07-15T13:48:16.461Z,1014.63
2017-07-15T13:49:26.437Z,1014.59
2017-07-15T13:50:37.028Z,1014.57
2017-07-15T13:51:47.313Z,1014.67
2017-07-15T13:52:57.284Z,1014.61
2017-07-15T13:54:07.570Z,1014.61
2017-07-15T13:55:17.850Z,1014.66
2017-07-15T13:56:28.372Z,1014.68
2017-07-15T13:57:38.660Z,1014.8
2017-07-15T13:58:48.625Z,1014.75
2017-07-15T13:59:58.590Z,1014.83
2017-07-15T14:01:08.550Z,1014.8
2017-07-15T14:02:19.074Z,1014.85
2017-07-15T14:03:29.357Z,1014.88
2017-07-15T14:04:38.999Z,1014.83
2017-07-15T14:05:49.279Z,1014.97
2017-07-15T14:06:59.550Z,1014.75
2017-07-15T14:08:09.761Z,1014.79
2017-07-15T14:09:20.036Z,1014.81
2017-07-15T14:10:30.305Z,1014.77
2017-07-15T14:11:40.598Z,1014.77